sensor_id;sensor_type;location;lat;lon;timestamp;P1;durP1;ratioP1;P2;durP2;ratioP2
55220;SDS011;41089;51.448;6.604;2022-10-15T00:03:42;12.68;;;11.20;;
55220;SDS011;41089;51.448;6.604;2022-10-15T00:09:44;12.35;;;11.15;;
55220;SDS011;41089;51.448;6.604;2022-10-15T00:15:44;12.15;;;10.63;;
55220;SDS011;41089;51.448;6.604;2022-10-15T00:27:44;14.65;;;13.07;;
55220;SDS011;41089;51.448;6.604;2022-10-15T00:33:45;13.68;;;11.93;;
55220;SDS011;41089;51.448;6.604;2022-10-15T00:39:47;15.98;;;14.35;;
55220;SDS011;41089;51.448;6.604;2022-10-15T00:45:48;18.77;;;14.53;;
55220;SDS011;41089;51.448;6.604;2022-10-15T00:51:53;22.27;;;16.50;;
55220;SDS011;41089;51.448;6.604;2022-10-15T00:58:00;19.90;;;14.13;;
55220;SDS011;41089;51.448;6.604;2022-10-15T01:04:06;21.15;;;15.80;;
55220;SDS011;41089;51.448;6.604;2022-10-15T01:10:07;29.08;;;17.67;;
55220;SDS011;41089;51.448;6.604;2022-10-15T01:41:51;14.73;;;12.77;;
55220;SDS011;41089;51.448;6.604;2022-10-15T01:47:55;17.75;;;14.75;;
55220;SDS011;41089;51.448;6.604;2022-10-15T01:53:56;24.35;;;18.80;;
55220;SDS011;41089;51.448;6.604;2022-10-15T01:59:57;20.23;;;17.70;;
55220;SDS011;41089;51.448;6.604;2022-10-15T02:06:03;19.58;;;15.73;;
55220;SDS011;41089;51.448;6.604;2022-10-15T02:18:56;21.35;;;17.70;;
55220;SDS011;41089;51.448;6.604;2022-10-15T02:24:46;19.60;;;17.42;;
55220;SDS011;41089;51.448;6.604;2022-10-15T02:30:50;28.58;;;19.60;;
55220;SDS011;41089;51.448;6.604;2022-10-15T02:36:56;24.58;;;20.08;;
55220;SDS011;41089;51.448;6.604;2022-10-15T02:42:58;20.77;;;18.52;;
55220;SDS011;41089;51.448;6.604;2022-10-15T02:48:59;21.33;;;19.15;;
55220;SDS011;41089;51.448;6.604;2022-10-15T02:54:59;24.13;;;21.53;;
55220;SDS011;41089;51.448;6.604;2022-10-15T03:07:01;29.42;;;22.05;;
55220;SDS011;41089;51.448;6.604;2022-10-15T03:13:02;22.83;;;19.73;;
55220;SDS011;41089;51.448;6.604;2022-10-15T03:19:03;22.55;;;20.38;;
55220;SDS011;41089;51.448;6.604;2022-10-15T03:25:04;30.10;;;23.02;;
55220;SDS011;41089;51.448;6.604;2022-10-15T03:31:04;31.45;;;24.98;;
55220;SDS011;41089;51.448;6.604;2022-10-15T03:37:05;27.50;;;23.00;;
55220;SDS011;41089;51.448;6.604;2022-10-15T03:43:05;23.83;;;21.53;;
55220;SDS011;41089;51.448;6.604;2022-10-15T03:49:06;27.03;;;21.73;;
55220;SDS011;41089;51.448;6.604;2022-10-15T03:55:07;27.17;;;21.40;;
55220;SDS011;41089;51.448;6.604;2022-10-15T04:01:10;25.23;;;22.48;;
55220;SDS011;41089;51.448;6.604;2022-10-15T04:07:14;25.63;;;21.33;;
55220;SDS011;41089;51.448;6.604;2022-10-15T04:13:15;24.58;;;21.20;;
55220;SDS011;41089;51.448;6.604;2022-10-15T04:19:15;22.67;;;20.38;;
55220;SDS011;41089;51.448;6.604;2022-10-15T04:25:16;24.52;;;21.52;;
55220;SDS011;41089;51.448;6.604;2022-10-15T04:31:17;22.13;;;19.83;;
55220;SDS011;41089;51.448;6.604;2022-10-15T04:37:17;28.02;;;21.77;;
55220;SDS011;41089;51.448;6.604;2022-10-15T04:43:19;22.20;;;19.53;;
55220;SDS011;41089;51.448;6.604;2022-10-15T04:49:19;21.00;;;18.85;;
55220;SDS011;41089;51.448;6.604;2022-10-15T04:55:20;21.73;;;19.13;;
55220;SDS011;41089;51.448;6.604;2022-10-15T05:07:21;25.33;;;21.88;;
55220;SDS011;41089;51.448;6.604;2022-10-15T05:13:21;27.30;;;21.10;;
55220;SDS011;41089;51.448;6.604;2022-10-15T05:19:22;26.27;;;22.58;;
55220;SDS011;41089;51.448;6.604;2022-10-15T05:25:22;22.17;;;19.50;;
55220;SDS011;41089;51.448;6.604;2022-10-15T05:31:23;19.43;;;16.83;;
55220;SDS011;41089;51.448;6.604;2022-10-15T05:37:25;32.15;;;21.02;;
55220;SDS011;41089;51.448;6.604;2022-10-15T05:43:25;29.50;;;19.87;;
55220;SDS011;41089;51.448;6.604;2022-10-15T05:49:26;22.75;;;18.63;;
55220;SDS011;41089;51.448;6.604;2022-10-15T05:55:26;23.63;;;18.27;;
55220;SDS011;41089;51.448;6.604;2022-10-15T06:07:27;21.23;;;16.83;;
55220;SDS011;41089;51.448;6.604;2022-10-15T06:13:28;30.23;;;20.52;;
55220;SDS011;41089;51.448;6.604;2022-10-15T06:19:28;21.00;;;18.73;;
55220;SDS011;41089;51.448;6.604;2022-10-15T06:25:29;19.03;;;16.80;;
55220;SDS011;41089;51.448;6.604;2022-10-15T06:31:29;28.13;;;18.33;;
55220;SDS011;41089;51.448;6.604;2022-10-15T06:37:30;26.77;;;18.77;;
55220;SDS011;41089;51.448;6.604;2022-10-15T06:43:30;18.53;;;16.57;;
55220;SDS011;41089;51.448;6.604;2022-10-15T06:49:31;19.02;;;15.70;;
55220;SDS011;41089;51.448;6.604;2022-10-15T06:55:32;31.52;;;18.10;;
55220;SDS011;41089;51.448;6.604;2022-10-15T07:01:33;26.20;;;18.65;;
55220;SDS011;41089;51.448;6.604;2022-10-15T07:07:33;22.43;;;17.30;;
55220;SDS011;41089;51.448;6.604;2022-10-15T07:13:33;25.47;;;17.77;;
55220;SDS011;41089;51.448;6.604;2022-10-15T07:19:35;24.70;;;17.35;;
55220;SDS011;41089;51.448;6.604;2022-10-15T07:25:36;33.55;;;25.10;;
55220;SDS011;41089;51.448;6.604;2022-10-15T07:31:36;30.90;;;25.20;;
55220;SDS011;41089;51.448;6.604;2022-10-15T07:37:37;31.97;;;24.00;;
55220;SDS011;41089;51.448;6.604;2022-10-15T07:43:37;31.65;;;25.23;;
55220;SDS011;41089;51.448;6.604;2022-10-15T07:49:38;39.03;;;27.42;;
55220;SDS011;41089;51.448;6.604;2022-10-15T07:55:38;44.20;;;33.90;;
55220;SDS011;41089;51.448;6.604;2022-10-15T08:01:38;36.77;;;28.93;;
55220;SDS011;41089;51.448;6.604;2022-10-15T08:07:39;30.75;;;23.85;;
55220;SDS011;41089;51.448;6.604;2022-10-15T08:13:41;44.83;;;38.22;;
55220;SDS011;41089;51.448;6.604;2022-10-15T08:19:42;37.67;;;25.48;;
55220;SDS011;41089;51.448;6.604;2022-10-15T08:25:46;31.33;;;25.33;;
55220;SDS011;41089;51.448;6.604;2022-10-15T08:31:50;24.73;;;21.75;;
55220;SDS011;41089;51.448;6.604;2022-10-15T08:37:52;25.10;;;20.25;;
55220;SDS011;41089;51.448;6.604;2022-10-15T08:43:53;29.08;;;22.58;;
55220;SDS011;41089;51.448;6.604;2022-10-15T08:49:57;29.35;;;21.73;;
55220;SDS011;41089;51.448;6.604;2022-10-15T08:56:04;25.33;;;21.17;;
55220;SDS011;41089;51.448;6.604;2022-10-15T09:02:22;23.88;;;20.92;;
55220;SDS011;41089;51.448;6.604;2022-10-15T09:15:04;12.95;;;10.82;;
55220;SDS011;41089;51.448;6.604;2022-10-15T09:21:09;7.85;;;6.68;;
55220;SDS011;41089;51.448;6.604;2022-10-15T09:40:13;7.93;;;7.13;;
55220;SDS011;41089;51.448;6.604;2022-10-15T09:46:27;9.15;;;7.85;;
55220;SDS011;41089;51.448;6.604;2022-10-15T10:04:56;6.55;;;4.70;;
55220;SDS011;41089;51.448;6.604;2022-10-15T10:10:58;5.32;;;4.82;;
55220;SDS011;41089;51.448;6.604;2022-10-15T10:17:09;5.35;;;4.85;;
55220;SDS011;41089;51.448;6.604;2022-10-15T10:23:22;5.93;;;4.03;;
55220;SDS011;41089;51.448;6.604;2022-10-15T10:29:25;5.95;;;4.07;;
55220;SDS011;41089;51.448;6.604;2022-10-15T10:35:28;3.75;;;3.03;;
55220;SDS011;41089;51.448;6.604;2022-10-15T10:41:58;4.10;;;3.70;;
55220;SDS011;41089;51.448;6.604;2022-10-15T10:48:19;3.47;;;3.17;;
55220;SDS011;41089;51.448;6.604;2022-10-15T10:54:22;5.82;;;2.88;;
55220;SDS011;41089;51.448;6.604;2022-10-15T11:06:37;3.42;;;3.13;;
55220;SDS011;41089;51.448;6.604;2022-10-15T11:12:53;3.38;;;3.08;;
55220;SDS011;41089;51.448;6.604;2022-10-15T11:19:33;5.30;;;3.20;;
55220;SDS011;41089;51.448;6.604;2022-10-15T11:50:44;3.45;;;2.40;;
55220;SDS011;41089;51.448;6.604;2022-10-15T11:56:49;2.47;;;2.25;;
55220;SDS011;41089;51.448;6.604;2022-10-15T12:02:51;6.32;;;2.47;;
55220;SDS011;41089;51.448;6.604;2022-10-15T12:08:53;2.47;;;2.00;;
55220;SDS011;41089;51.448;6.604;2022-10-15T12:21:33;3.53;;;1.25;;
55220;SDS011;41089;51.448;6.604;2022-10-15T12:27:38;1.40;;;1.30;;
55220;SDS011;41089;51.448;6.604;2022-10-15T12:33:52;2.60;;;1.45;;
55220;SDS011;41089;51.448;6.604;2022-10-15T12:39:57;2.35;;;1.15;;
55220;SDS011;41089;51.448;6.604;2022-10-15T12:46:01;1.67;;;1.30;;
55220;SDS011;41089;51.448;6.604;2022-10-15T12:52:46;3.00;;;1.30;;
55220;SDS011;41089;51.448;6.604;2022-10-15T13:04:43;1.92;;;1.20;;
55220;SDS011;41089;51.448;6.604;2022-10-15T13:10:51;1.83;;;1.17;;
55220;SDS011;41089;51.448;6.604;2022-10-15T13:16:55;1.88;;;1.00;;
55220;SDS011;41089;51.448;6.604;2022-10-15T13:23:07;0.90;;;0.70;;
55220;SDS011;41089;51.448;6.604;2022-10-15T13:29:24;1.63;;;0.73;;
55220;SDS011;41089;51.448;6.604;2022-10-15T13:35:27;1.05;;;0.70;;
55220;SDS011;41089;51.448;6.604;2022-10-15T13:41:30;1.05;;;0.70;;
55220;SDS011;41089;51.448;6.604;2022-10-15T13:47:34;3.97;;;0.80;;
55220;SDS011;41089;51.448;6.604;2022-10-15T13:53:37;1.20;;;1.10;;
55220;SDS011;41089;51.448;6.604;2022-10-15T13:59:40;0.73;;;0.68;;
55220;SDS011;41089;51.448;6.604;2022-10-15T14:05:44;1.15;;;1.05;;
55220;SDS011;41089;51.448;6.604;2022-10-15T14:11:45;2.40;;;0.88;;
55220;SDS011;41089;51.448;6.604;2022-10-15T14:17:48;2.20;;;0.77;;
55220;SDS011;41089;51.448;6.604;2022-10-15T14:23:49;3.42;;;1.00;;
55220;SDS011;41089;51.448;6.604;2022-10-15T14:29:53;2.50;;;1.10;;
55220;SDS011;41089;51.448;6.604;2022-10-15T14:36:10;3.22;;;0.95;;
55220;SDS011;41089;51.448;6.604;2022-10-15T14:42:26;2.60;;;1.40;;
55220;SDS011;41089;51.448;6.604;2022-10-15T14:48:30;1.80;;;1.38;;
55220;SDS011;41089;51.448;6.604;2022-10-15T14:54:34;2.28;;;1.20;;
55220;SDS011;41089;51.448;6.604;2022-10-15T15:00:41;1.65;;;1.40;;
55220;SDS011;41089;51.448;6.604;2022-10-15T15:06:42;1.80;;;1.05;;
55220;SDS011;41089;51.448;6.604;2022-10-15T15:12:45;2.00;;;1.20;;
55220;SDS011;41089;51.448;6.604;2022-10-15T15:18:48;2.17;;;1.27;;
55220;SDS011;41089;51.448;6.604;2022-10-15T15:24:49;1.30;;;1.20;;
55220;SDS011;41089;51.448;6.604;2022-10-15T15:30:50;3.28;;;1.55;;
55220;SDS011;41089;51.448;6.604;2022-10-15T15:36:58;1.95;;;1.50;;
55220;SDS011;41089;51.448;6.604;2022-10-15T15:43:00;1.55;;;1.35;;
55220;SDS011;41089;51.448;6.604;2022-10-15T15:49:00;2.57;;;1.90;;
55220;SDS011;41089;51.448;6.604;2022-10-15T15:55:01;1.75;;;1.65;;
55220;SDS011;41089;51.448;6.604;2022-10-15T16:01:01;3.30;;;1.80;;
55220;SDS011;41089;51.448;6.604;2022-10-15T16:07:01;1.80;;;1.20;;
55220;SDS011;41089;51.448;6.604;2022-10-15T16:13:02;2.25;;;1.30;;
55220;SDS011;41089;51.448;6.604;2022-10-15T16:19:03;1.48;;;1.38;;
55220;SDS011;41089;51.448;6.604;2022-10-15T16:25:04;4.18;;;2.97;;
55220;SDS011;41089;51.448;6.604;2022-10-15T16:31:15;5.03;;;2.67;;
55220;SDS011;41089;51.448;6.604;2022-10-15T16:37:16;5.13;;;3.05;;
55220;SDS011;41089;51.448;6.604;2022-10-15T16:43:18;6.97;;;4.40;;
55220;SDS011;41089;51.448;6.604;2022-10-15T16:49:19;7.68;;;2.70;;
55220;SDS011;41089;51.448;6.604;2022-10-15T16:55:20;5.10;;;2.35;;
55220;SDS011;41089;51.448;6.604;2022-10-15T17:01:24;5.28;;;2.85;;
55220;SDS011;41089;51.448;6.604;2022-10-15T17:07:26;3.80;;;3.22;;
55220;SDS011;41089;51.448;6.604;2022-10-15T17:13:27;5.65;;;3.20;;
55220;SDS011;41089;51.448;6.604;2022-10-15T17:19:27;5.27;;;1.97;;
55220;SDS011;41089;51.448;6.604;2022-10-15T17:25:27;4.83;;;1.90;;
55220;SDS011;41089;51.448;6.604;2022-10-15T17:31:28;3.43;;;1.67;;
55220;SDS011;41089;51.448;6.604;2022-10-15T17:37:29;3.80;;;1.63;;
55220;SDS011;41089;51.448;6.604;2022-10-15T17:43:30;4.03;;;1.17;;
55220;SDS011;41089;51.448;6.604;2022-10-15T17:49:30;1.93;;;1.23;;
55220;SDS011;41089;51.448;6.604;2022-10-15T17:55:31;3.40;;;1.13;;
55220;SDS011;41089;51.448;6.604;2022-10-15T18:01:35;1.37;;;0.87;;
55220;SDS011;41089;51.448;6.604;2022-10-15T18:07:38;4.10;;;1.27;;
55220;SDS011;41089;51.448;6.604;2022-10-15T18:13:38;3.72;;;0.98;;
55220;SDS011;41089;51.448;6.604;2022-10-15T18:19:40;1.85;;;1.08;;
55220;SDS011;41089;51.448;6.604;2022-10-15T18:25:40;2.03;;;1.30;;
55220;SDS011;41089;51.448;6.604;2022-10-15T18:31:40;3.00;;;1.47;;
55220;SDS011;41089;51.448;6.604;2022-10-15T18:37:41;4.90;;;2.03;;
55220;SDS011;41089;51.448;6.604;2022-10-15T18:43:41;5.23;;;1.47;;
55220;SDS011;41089;51.448;6.604;2022-10-15T18:49:42;3.03;;;1.83;;
55220;SDS011;41089;51.448;6.604;2022-10-15T18:55:42;4.95;;;2.25;;
55220;SDS011;41089;51.448;6.604;2022-10-15T19:01:43;7.40;;;3.13;;
55220;SDS011;41089;51.448;6.604;2022-10-15T19:07:43;7.03;;;3.60;;
55220;SDS011;41089;51.448;6.604;2022-10-15T19:13:44;4.90;;;4.10;;
55220;SDS011;41089;51.448;6.604;2022-10-15T19:19:44;5.70;;;4.10;;
55220;SDS011;41089;51.448;6.604;2022-10-15T19:25:49;6.05;;;4.35;;
55220;SDS011;41089;51.448;6.604;2022-10-15T19:31:50;4.63;;;3.70;;
55220;SDS011;41089;51.448;6.604;2022-10-15T19:37:51;5.32;;;3.55;;
55220;SDS011;41089;51.448;6.604;2022-10-15T19:43:53;8.97;;;3.73;;
55220;SDS011;41089;51.448;6.604;2022-10-15T19:49:54;5.40;;;3.85;;
55220;SDS011;41089;51.448;6.604;2022-10-15T19:56:02;5.27;;;3.57;;
55220;SDS011;41089;51.448;6.604;2022-10-15T20:02:04;6.53;;;3.37;;
55220;SDS011;41089;51.448;6.604;2022-10-15T20:08:04;5.63;;;3.20;;
55220;SDS011;41089;51.448;6.604;2022-10-15T20:14:06;4.85;;;3.30;;
55220;SDS011;41089;51.448;6.604;2022-10-15T20:20:06;6.43;;;3.07;;
55220;SDS011;41089;51.448;6.604;2022-10-15T20:26:08;7.97;;;3.15;;
55220;SDS011;41089;51.448;6.604;2022-10-15T20:32:10;6.13;;;3.20;;
55220;SDS011;41089;51.448;6.604;2022-10-15T20:38:15;6.90;;;3.05;;
55220;SDS011;41089;51.448;6.604;2022-10-15T20:44:16;7.05;;;3.40;;
55220;SDS011;41089;51.448;6.604;2022-10-15T20:50:28;6.80;;;3.42;;
55220;SDS011;41089;51.448;6.604;2022-10-15T20:56:30;7.38;;;3.05;;
55220;SDS011;41089;51.448;6.604;2022-10-15T21:02:31;6.07;;;3.30;;
55220;SDS011;41089;51.448;6.604;2022-10-15T21:08:31;5.90;;;3.47;;
55220;SDS011;41089;51.448;6.604;2022-10-15T21:14:32;5.70;;;3.53;;
55220;SDS011;41089;51.448;6.604;2022-10-15T21:20:33;9.35;;;3.85;;
55220;SDS011;41089;51.448;6.604;2022-10-15T21:26:33;10.02;;;3.60;;
55220;SDS011;41089;51.448;6.604;2022-10-15T21:32:33;8.18;;;3.88;;
55220;SDS011;41089;51.448;6.604;2022-10-15T21:38:34;6.43;;;3.72;;
55220;SDS011;41089;51.448;6.604;2022-10-15T21:44:34;4.32;;;3.75;;
55220;SDS011;41089;51.448;6.604;2022-10-15T21:50:35;5.03;;;3.50;;
55220;SDS011;41089;51.448;6.604;2022-10-15T21:56:35;9.07;;;3.90;;
55220;SDS011;41089;51.448;6.604;2022-10-15T22:02:36;7.75;;;4.07;;
55220;SDS011;41089;51.448;6.604;2022-10-15T22:08:36;6.83;;;4.03;;
55220;SDS011;41089;51.448;6.604;2022-10-15T22:14:37;5.50;;;4.00;;
55220;SDS011;41089;51.448;6.604;2022-10-15T22:20:37;6.97;;;3.90;;
55220;SDS011;41089;51.448;6.604;2022-10-15T22:26:39;5.77;;;3.50;;
55220;SDS011;41089;51.448;6.604;2022-10-15T22:32:41;5.75;;;3.30;;
55220;SDS011;41089;51.448;6.604;2022-10-15T22:38:42;8.47;;;3.67;;
55220;SDS011;41089;51.448;6.604;2022-10-15T22:44:45;7.07;;;3.75;;
55220;SDS011;41089;51.448;6.604;2022-10-15T22:50:45;4.07;;;3.07;;
55220;SDS011;41089;51.448;6.604;2022-10-15T22:56:45;7.53;;;3.13;;
55220;SDS011;41089;51.448;6.604;2022-10-15T23:02:46;6.22;;;3.70;;
55220;SDS011;41089;51.448;6.604;2022-10-15T23:08:47;9.73;;;3.53;;
55220;SDS011;41089;51.448;6.604;2022-10-15T23:14:48;7.00;;;3.50;;
55220;SDS011;41089;51.448;6.604;2022-10-15T23:20:49;7.70;;;3.13;;
55220;SDS011;41089;51.448;6.604;2022-10-15T23:26:50;7.28;;;3.90;;
55220;SDS011;41089;51.448;6.604;2022-10-15T23:32:50;3.92;;;3.38;;
55220;SDS011;41089;51.448;6.604;2022-10-15T23:38:52;6.17;;;3.10;;
55220;SDS011;41089;51.448;6.604;2022-10-15T23:44:53;8.20;;;3.08;;
55220;SDS011;41089;51.448;6.604;2022-10-15T23:50:55;7.53;;;2.80;;
55220;SDS011;41089;51.448;6.604;2022-10-15T23:56:55;6.03;;;2.42;;
